createdAt,value
2022-11-23T00:01:17.938Z,98706.13
2022-11-23T00:05:21.022Z,98721.19
2022-11-23T00:09:25.392Z,98714.06
2022-11-23T00:13:28.537Z,98711.66
2022-11-23T00:17:31.549Z,98717.97
2022-11-23T00:21:34.615Z,98722.94
2022-11-23T00:25:39.024Z,98730.63
2022-11-23T00:29:42.040Z,98720.50
2022-11-23T00:33:50.361Z,98729.78
2022-11-23T00:37:53.558Z,98729.78
2022-11-23T00:41:57.867Z,98742.34
2022-11-23T00:46:06.185Z,98738.84
2022-11-23T00:50:10.103Z,98743.19
2022-11-23T00:54:13.548Z,98734.44
2022-11-23T00:58:17.904Z,98743.69
2022-11-23T01:02:21.870Z,98734.91
2022-11-23T01:06:26.406Z,98744.19
2022-11-23T01:10:30.685Z,98755.09
2022-11-23T01:14:35.211Z,98767.09
2022-11-23T01:18:41.025Z,98762.72
2022-11-23T01:22:44.106Z,98754.75
2022-11-23T01:26:51.500Z,98772.47
2022-11-23T01:31:03.771Z,98767.81
2022-11-23T01:35:07.634Z,98772.13
2022-11-23T01:39:13.076Z,98769.06
2022-11-23T01:43:18.177Z,98771.88
2022-11-23T01:47:22.569Z,98781.72
2022-11-23T01:51:29.681Z,98777.56
2022-11-23T01:55:34.969Z,98780.06
2022-11-23T01:59:38.346Z,98784.94
2022-11-23T02:03:47.185Z,98781.16
2022-11-23T02:07:50.966Z,98791.47
2022-11-23T02:11:54.193Z,98790.41
2022-11-23T02:15:59.331Z,98794.44
2022-11-23T02:20:08.642Z,98798.00
2022-11-23T02:24:19.037Z,98801.31
2022-11-23T02:28:27.917Z,98796.94
2022-11-23T02:32:31.926Z,98796.94
2022-11-23T02:36:40.697Z,98800.38
2022-11-23T02:40:43.951Z,98796.84
2022-11-23T02:44:57.331Z,98798.00
2022-11-23T02:49:00.258Z,98796.94
2022-11-23T02:53:04.112Z,98796.78
2022-11-23T02:57:08.977Z,98795.69
2022-11-23T03:01:17.399Z,98795.47
2022-11-23T03:05:23.080Z,98794.13
2022-11-23T03:09:28.346Z,98790.69
2022-11-23T03:13:31.447Z,98792.31
2022-11-23T03:17:37.662Z,98797.22
2022-11-23T03:21:40.711Z,98791.00
2022-11-23T03:25:44.177Z,98792.66
2022-11-23T03:29:49.956Z,98797.84
2022-11-23T03:33:57.777Z,98793.63
2022-11-23T03:38:01.942Z,98790.81
2022-11-23T03:42:05.546Z,98800.94
2022-11-23T03:46:10.938Z,98798.91
2022-11-23T03:50:15.469Z,98795.13
2022-11-23T03:54:18.918Z,98812.66
2022-11-23T03:58:22.713Z,98805.22
2022-11-23T04:02:25.920Z,98804.72
2022-11-23T04:06:41.089Z,98798.78
2022-11-23T04:10:57.879Z,98794.03
2022-11-23T04:15:12.361Z,98794.31
2022-11-23T04:19:15.419Z,98796.78
2022-11-23T04:23:20.529Z,98795.97
2022-11-23T04:27:25.637Z,98798.91
2022-11-23T04:31:28.703Z,98795.97
2022-11-23T04:35:45.012Z,98799.75
2022-11-23T04:39:49.950Z,98794.78
2022-11-23T04:43:56.237Z,98784.94
2022-11-23T04:48:00.795Z,98801.31
2022-11-23T04:52:04.496Z,98800.75
2022-11-23T04:56:14.023Z,98808.34
2022-11-23T05:00:19.120Z,98807.66
2022-11-23T05:04:23.974Z,98805.44
2022-11-23T05:08:27.250Z,98802.69
2022-11-23T05:12:54.720Z,98795.00
2022-11-23T05:16:58.318Z,98798.22
2022-11-23T05:21:02.386Z,98804.50
2022-11-23T05:25:06.960Z,98798.72
2022-11-23T05:29:12.883Z,98800.38
2022-11-23T05:33:16.538Z,98811.53
2022-11-23T05:37:20.322Z,98811.53
2022-11-23T05:41:29.541Z,98809.13
2022-11-23T05:45:37.423Z,98814.09
2022-11-23T05:49:40.519Z,98806.41
2022-11-23T05:53:43.728Z,98804.84
2022-11-23T05:58:15.756Z,98800.56
2022-11-23T06:02:20.402Z,98801.84
2022-11-23T06:06:27.111Z,98805.44
2022-11-23T06:10:30.296Z,98796.06
2022-11-23T06:14:33.701Z,98801.06
2022-11-23T06:18:38.363Z,98804.84
2022-11-23T06:22:41.796Z,98801.53
2022-11-23T06:26:45.518Z,98801.63
2022-11-23T06:30:48.598Z,98798.41
2022-11-23T06:34:55.658Z,98794.59
2022-11-23T06:39:02.779Z,98789.97
2022-11-23T06:43:05.929Z,98798.06
2022-11-23T06:47:18.326Z,98786.66
2022-11-23T06:51:25.080Z,98797.72
2022-11-23T06:55:29.049Z,98803.41
2022-11-23T06:59:32.608Z,98814.28
2022-11-23T07:03:36.411Z,98812.75
2022-11-23T07:07:49.895Z,98811.66
2022-11-23T07:11:59.267Z,98811.66
2022-11-23T07:16:02.720Z,98818.47
2022-11-23T07:20:07.293Z,98829.94
2022-11-23T07:24:12.113Z,98844.19
2022-11-23T07:28:15.334Z,98852.25
2022-11-23T07:32:18.428Z,98850.00
2022-11-23T07:36:21.622Z,98847.00
2022-11-23T07:40:26.606Z,98836.31
2022-11-23T07:44:30.043Z,98838.75
2022-11-23T07:48:36.295Z,98837.28
2022-11-23T07:52:41.092Z,98847.81
2022-11-23T07:56:46.784Z,98846.84
2022-11-23T08:00:49.985Z,98848.81
2022-11-23T08:04:53.024Z,98851.84
2022-11-23T08:08:56.939Z,98856.63
2022-11-23T08:13:03.336Z,98861.47
2022-11-23T08:17:06.649Z,98857.34
2022-11-23T08:21:09.658Z,98858.25
2022-11-23T08:25:12.742Z,98865.69
2022-11-23T08:29:17.272Z,98868.91
2022-11-23T08:33:20.368Z,98865.63
2022-11-23T08:37:23.440Z,98868.78
2022-11-23T08:41:27.411Z,98878.41
2022-11-23T08:45:32.029Z,98878.56
2022-11-23T08:49:35.089Z,98873.50
2022-11-23T08:53:38.686Z,98872.59
2022-11-23T08:57:42.111Z,98875.25
2022-11-23T09:01:46.997Z,98867.47
2022-11-23T09:05:51.172Z,98879.22
2022-11-23T09:09:54.222Z,98869.53
2022-11-23T09:13:57.401Z,98863.50
2022-11-23T09:18:01.798Z,98858.94
2022-11-23T09:22:05.157Z,98866.63
2022-11-23T09:26:08.247Z,98870.38
2022-11-23T09:30:12.685Z,98861.16
2022-11-23T09:34:17.290Z,98866.25
2022-11-23T09:38:29.303Z,98873.16
2022-11-23T09:43:09.266Z,98879.09
2022-11-23T09:47:41.616Z,98886.94
2022-11-23T09:51:46.821Z,98870.59
2022-11-23T09:55:52.792Z,98875.25
2022-11-23T10:00:02.070Z,98864.72
2022-11-23T10:04:10.976Z,98846.53
2022-11-23T10:08:27.141Z,98845.63
2022-11-23T10:12:43.473Z,98821.84
2022-11-23T10:16:54.092Z,98815.53
2022-11-23T10:21:04.029Z,98803.72
2022-11-23T10:25:17.168Z,98792.91
2022-11-23T10:29:26.971Z,98784.75
2022-11-23T10:33:34.103Z,98788.63
2022-11-23T10:37:40.023Z,98786.66
2022-11-23T10:41:45.600Z,98790.84
2022-11-23T10:45:48.758Z,98784.41
2022-11-23T10:49:58.946Z,98785.56
2022-11-23T10:54:05.662Z,98770.97
2022-11-23T10:58:26.755Z,98761.50
2022-11-23T11:02:30.970Z,98759.00
2022-11-23T11:06:36.297Z,98752.69
2022-11-23T11:10:42.437Z,98751.56
2022-11-23T11:15:05.191Z,98748.91
2022-11-23T11:19:27.855Z,98758.25
2022-11-23T11:23:32.422Z,98755.06
2022-11-23T11:27:35.563Z,98754.22
2022-11-23T11:31:53.460Z,98755.59
2022-11-23T11:35:57.630Z,98766.41
2022-11-23T11:40:11.956Z,98762.53
2022-11-23T11:44:21.293Z,98762.44
2022-11-23T11:48:31.663Z,98754.59
2022-11-23T11:52:38.719Z,98752.09
2022-11-23T11:56:46.156Z,98757.81
2022-11-23T12:00:51.713Z,98748.69
2022-11-23T12:05:05.708Z,98744.84
2022-11-23T12:09:15.724Z,98739.22
2022-11-23T12:13:21.179Z,98722.28
2022-11-23T12:17:48.727Z,98710.75
2022-11-23T12:22:10.583Z,98696.03
2022-11-23T12:26:23.511Z,98679.06
2022-11-23T12:30:32.133Z,98678.50
2022-11-23T12:34:54.979Z,98675.16
2022-11-23T12:39:11.122Z,98666.69
2022-11-23T12:43:20.956Z,98673.78
2022-11-23T12:47:39.176Z,98668.03
2022-11-23T12:51:50.548Z,98661.47
2022-11-23T12:56:03.997Z,98663.94
2022-11-23T13:00:14.081Z,98663.63
2022-11-23T13:04:47.131Z,98660.81
2022-11-23T13:09:26.233Z,98661.75
2022-11-23T13:13:50.923Z,98657.88
2022-11-23T13:18:01.152Z,98662.53
2022-11-23T13:22:07.583Z,98666.09
2022-11-23T13:26:15.472Z,98664.44
2022-11-23T13:35:05.242Z,98657.28
2022-11-23T13:39:58.954Z,98656.09
2022-11-23T13:44:13.615Z,98661.03
2022-11-23T13:48:55.025Z,98658.56
2022-11-23T13:52:50.824Z,98670.66
2022-11-23T13:57:00.129Z,98670.56
2022-11-23T14:01:03.277Z,98673.75
2022-11-23T14:05:46.018Z,98665.22
2022-11-23T14:09:55.789Z,98664.88
2022-11-23T14:14:02.530Z,98663.63
2022-11-23T14:18:31.545Z,98680.03
2022-11-23T14:22:44.257Z,98687.09
2022-11-23T14:27:30.702Z,98697.88
2022-11-23T14:31:46.471Z,98712.81
2022-11-23T14:35:59.614Z,98733.22
2022-11-23T14:40:12.832Z,98742.13
2022-11-23T14:44:25.644Z,98747.03
2022-11-23T14:48:30.771Z,98755.59
2022-11-23T14:52:36.995Z,98779.13
2022-11-23T14:56:45.205Z,98804.75
2022-11-23T15:00:50.870Z,98834.94
2022-11-23T15:04:58.956Z,98859.16
2022-11-23T15:09:05.906Z,98877.41
2022-11-23T15:13:19.991Z,98878.81
2022-11-23T15:17:24.853Z,98875.97
2022-11-23T15:21:28.390Z,98890.66
2022-11-23T15:25:31.319Z,98912.31
2022-11-23T15:29:35.419Z,98934.59
2022-11-23T15:33:40.021Z,98937.78
2022-11-23T15:37:45.118Z,98937.19
2022-11-23T15:41:48.181Z,98954.59
2022-11-23T15:46:02.642Z,98953.78
2022-11-23T15:50:10.035Z,98974.59
2022-11-23T15:54:16.391Z,98964.16
2022-11-23T15:58:19.862Z,98974.84
2022-11-23T16:02:23.345Z,98986.53
2022-11-23T16:06:35.431Z,98996.25
2022-11-23T16:10:54.457Z,99012.72
2022-11-23T16:14:58.732Z,99014.97
2022-11-23T16:19:01.776Z,99010.72
2022-11-23T16:23:07.269Z,99017.38
2022-11-23T16:27:15.258Z,99007.41
2022-11-23T16:31:29.178Z,99012.50
2022-11-23T16:35:32.432Z,98994.13
2022-11-23T16:39:36.817Z,98997.78
2022-11-23T16:43:40.182Z,99002.03
2022-11-23T16:47:53.261Z,98988.28
2022-11-23T16:51:57.355Z,99009.44
2022-11-23T16:56:03.764Z,98990.66
2022-11-23T17:00:08.266Z,99019.19
2022-11-23T17:04:11.763Z,99021.91
2022-11-23T17:08:23.047Z,99012.66
2022-11-23T17:12:27.831Z,99027.56
2022-11-23T17:16:31.198Z,99027.22
2022-11-23T17:20:34.174Z,99039.97
2022-11-23T17:24:37.071Z,99034.97
2022-11-23T17:28:41.359Z,99039.22
2022-11-23T17:32:44.327Z,99057.94
2022-11-23T17:36:48.190Z,99064.56
2022-11-23T17:40:51.159Z,99070.03
2022-11-23T17:44:55.708Z,99059.13
2022-11-23T17:49:02.492Z,99055.34
2022-11-23T17:53:05.891Z,99060.78
2022-11-23T17:57:14.134Z,99072.28
2022-11-23T18:01:19.984Z,99071.22
2022-11-23T18:05:23.088Z,99075.97
2022-11-23T18:09:26.310Z,99080.13
2022-11-23T18:13:29.354Z,99092.19
2022-11-23T18:17:33.808Z,99094.34
2022-11-23T18:21:37.271Z,99099.91
2022-11-23T18:25:40.459Z,99103.84
2022-11-23T18:29:43.620Z,99104.91
2022-11-23T18:33:48.329Z,99117.69
2022-11-23T18:37:51.465Z,99122.63
2022-11-23T18:41:54.772Z,99135.03
2022-11-23T18:45:58.228Z,99137.47
2022-11-23T18:50:06.464Z,99150.47
2022-11-23T18:54:10.044Z,99158.47
2022-11-23T18:58:13.188Z,99165.03
2022-11-23T19:02:16.759Z,99178.28
2022-11-23T19:06:22.911Z,99172.88
2022-11-23T19:10:25.980Z,99176.66
2022-11-23T19:14:29.044Z,99190.81
2022-11-23T19:18:32.421Z,99190.59
2022-11-23T19:22:37.337Z,99196.06
2022-11-23T19:26:40.481Z,99199.47
2022-11-23T19:30:43.576Z,99201.06
2022-11-23T19:34:46.716Z,99208.16
2022-11-23T19:38:51.793Z,99225.94
2022-11-23T19:42:55.323Z,99232.63
2022-11-23T19:46:58.436Z,99238.25
2022-11-23T19:51:03.484Z,99239.25
2022-11-23T19:55:08.980Z,99248.25
2022-11-23T19:59:12.032Z,99260.34
2022-11-23T20:03:15.411Z,99253.13
2022-11-23T20:07:18.890Z,99264.91
2022-11-23T20:11:23.843Z,99273.41
2022-11-23T20:15:27.359Z,99272.22
2022-11-23T20:19:31.651Z,99281.78
2022-11-23T20:23:34.933Z,99279.38
2022-11-23T20:27:39.316Z,99290.06
2022-11-23T20:31:42.492Z,99290.22
2022-11-23T20:35:45.930Z,99290.13
2022-11-23T20:39:49.121Z,99288.72
2022-11-23T20:43:55.520Z,99294.47
2022-11-23T20:47:58.843Z,99288.56
2022-11-23T20:52:02.117Z,99301.06
2022-11-23T20:56:07.904Z,99299.47
2022-11-23T21:00:13.973Z,99314.59
2022-11-23T21:04:17.027Z,99311.28
2022-11-23T21:08:30.271Z,99321.00
2022-11-23T21:12:53.975Z,99322.94
2022-11-23T21:16:59.578Z,99320.91
2022-11-23T21:21:03.177Z,99333.41
2022-11-23T21:25:07.066Z,99332.19
2022-11-23T21:29:11.443Z,99332.25
2022-11-23T21:33:15.958Z,99336.50
2022-11-23T21:37:19.004Z,99350.63
2022-11-23T21:41:23.904Z,99347.31
2022-11-23T21:45:28.181Z,99348.06
2022-11-23T21:49:32.579Z,99349.09
2022-11-23T21:53:36.649Z,99349.09
2022-11-23T21:57:39.710Z,99354.41
2022-11-23T22:01:43.245Z,99367.56
2022-11-23T22:05:57.562Z,99358.03
2022-11-23T22:10:00.613Z,99367.84
2022-11-23T22:14:05.650Z,99360.13
2022-11-23T22:18:08.683Z,99369.16
2022-11-23T22:22:13.480Z,99370.44
2022-11-23T22:26:18.170Z,99384.53
2022-11-23T22:30:21.296Z,99377.44
2022-11-23T22:34:24.341Z,99396.91
2022-11-23T22:38:32.231Z,99387.97
2022-11-23T22:42:35.257Z,99399.75
2022-11-23T22:46:39.509Z,99399.22
2022-11-23T22:50:43.920Z,99396.66
2022-11-23T22:54:48.301Z,99411.88
2022-11-23T22:58:51.397Z,99406.34
2022-11-23T23:02:56.288Z,99414.22
2022-11-23T23:06:59.748Z,99414.06
2022-11-23T23:11:08.224Z,99423.84
2022-11-23T23:15:12.070Z,99431.31
2022-11-23T23:19:15.232Z,99432.97
2022-11-23T23:23:18.221Z,99444.50
2022-11-23T23:27:22.726Z,99442.69
2022-11-23T23:31:26.503Z,99444.56
2022-11-23T23:35:29.596Z,99448.50
2022-11-23T23:39:32.670Z,99450.19
2022-11-23T23:43:37.336Z,99460.16
2022-11-23T23:47:40.740Z,99461.38
2022-11-23T23:51:47.569Z,99463.41
2022-11-23T23:55:57.756Z,99459.63
